createdAt,value
2022-12-15T00:02:03.142Z,97115.66
2022-12-15T00:05:43.762Z,97117.41
2022-12-15T00:09:31.068Z,97106.25
2022-12-15T00:13:11.503Z,97104.94
2022-12-15T00:16:52.347Z,97106.78
2022-12-15T00:20:33.230Z,97112.53
2022-12-15T00:24:13.900Z,97125.38
2022-12-15T00:27:54.220Z,97131.28
2022-12-15T00:31:34.769Z,97127.50
2022-12-15T00:35:15.295Z,97135.59
2022-12-15T00:38:46.119Z,97136.84
2022-12-15T00:42:09.291Z,97140.22
2022-12-15T00:45:49.398Z,97149.41
2022-12-15T00:49:31.309Z,97167.38
2022-12-15T00:53:11.689Z,97169.25
2022-12-15T00:56:52.423Z,97177.53
2022-12-15T01:00:33.656Z,97180.31
2022-12-15T01:04:14.399Z,97175.47
2022-12-15T01:07:54.939Z,97172.78
2022-12-15T01:11:35.216Z,97180.06
2022-12-15T01:15:15.654Z,97181.38
2022-12-15T01:18:55.911Z,97179.25
2022-12-15T01:22:17.705Z,97181.53
2022-12-15T01:25:39.649Z,97179.78
2022-12-15T01:29:01.504Z,97181.00
2022-12-15T01:32:23.305Z,97177.44
2022-12-15T01:35:45.770Z,97184.75
2022-12-15T01:39:07.485Z,97184.34
2022-12-15T01:42:30.307Z,97193.75
2022-12-15T01:46:13.749Z,97204.69
2022-12-15T01:49:35.689Z,97206.31
2022-12-15T01:52:57.605Z,97201.50
2022-12-15T01:56:21.517Z,97206.94
2022-12-15T01:59:51.810Z,97205.03
2022-12-15T02:03:14.527Z,97219.72
2022-12-15T02:06:36.738Z,97211.28
2022-12-15T02:10:07.296Z,97207.97
2022-12-15T02:13:49.793Z,97212.75
2022-12-15T02:17:51.064Z,97223.25
2022-12-15T02:21:37.284Z,97219.97
2022-12-15T02:25:47.057Z,97230.94
2022-12-15T02:29:37.312Z,97242.13
2022-12-15T02:33:18.693Z,97234.09
2022-12-15T02:36:47.505Z,97227.56
2022-12-15T02:40:11.363Z,97224.59
2022-12-15T02:43:38.776Z,97238.63
2022-12-15T02:47:32.765Z,97246.16
2022-12-15T02:51:25.908Z,97240.16
2022-12-15T02:55:27.429Z,97246.56
2022-12-15T02:59:02.740Z,97253.13
2022-12-15T03:02:30.481Z,97259.22
2022-12-15T03:05:57.221Z,97252.47
2022-12-15T03:09:19.071Z,97257.16
2022-12-15T03:12:41.033Z,97259.88
2022-12-15T03:16:02.982Z,97258.22
2022-12-15T03:19:25.877Z,97247.03
2022-12-15T03:22:47.746Z,97234.00
2022-12-15T03:26:09.498Z,97222.72
2022-12-15T03:29:31.361Z,97216.38
2022-12-15T03:32:53.199Z,97219.91
2022-12-15T03:36:15.063Z,97227.31
2022-12-15T03:39:37.032Z,97224.50
2022-12-15T03:42:58.933Z,97228.63
2022-12-15T03:46:20.876Z,97215.31
2022-12-15T03:49:42.753Z,97219.44
2022-12-15T03:53:05.305Z,97227.78
2022-12-15T03:56:27.187Z,97224.69
2022-12-15T03:59:49.085Z,97229.44
2022-12-15T04:03:11.759Z,97209.03
2022-12-15T04:06:33.777Z,97231.56
2022-12-15T04:09:55.756Z,97233.44
2022-12-15T04:13:17.542Z,97247.31
2022-12-15T04:16:39.435Z,97256.97
2022-12-15T04:20:10.294Z,97251.91
2022-12-15T04:23:32.622Z,97248.47
2022-12-15T04:27:13.340Z,97248.63
2022-12-15T04:30:53.967Z,97252.72
2022-12-15T04:34:40.492Z,97257.06
2022-12-15T04:38:21.234Z,97242.97
2022-12-15T04:42:01.894Z,97245.66
2022-12-15T04:45:44.110Z,97253.22
2022-12-15T04:49:24.462Z,97253.66
2022-12-15T04:53:04.563Z,97257.91
2022-12-15T04:56:45.212Z,97255.47
2022-12-15T05:00:26.591Z,97258.50
2022-12-15T05:04:07.192Z,97253.00
2022-12-15T05:07:47.840Z,97249.81
2022-12-15T05:11:27.884Z,97253.72
2022-12-15T05:15:08.036Z,97256.75
2022-12-15T05:18:48.270Z,97268.06
2022-12-15T05:22:28.361Z,97272.28
2022-12-15T05:26:08.596Z,97271.94
2022-12-15T05:29:48.811Z,97279.72
2022-12-15T05:33:10.647Z,97285.47
2022-12-15T05:36:33.618Z,97279.00
2022-12-15T05:39:55.514Z,97273.34
2022-12-15T05:43:20.469Z,97273.66
2022-12-15T05:46:47.399Z,97279.56
2022-12-15T05:50:09.702Z,97274.41
2022-12-15T05:53:32.069Z,97272.16
2022-12-15T05:56:54.476Z,97271.59
2022-12-15T06:00:16.669Z,97277.94
2022-12-15T06:03:39.581Z,97271.47
2022-12-15T06:07:01.439Z,97276.66
2022-12-15T06:10:23.349Z,97288.41
2022-12-15T06:13:46.557Z,97278.56
2022-12-15T06:17:08.701Z,97280.53
2022-12-15T06:20:30.729Z,97279.94
2022-12-15T06:23:53.151Z,97275.00
2022-12-15T06:27:15.150Z,97278.88
2022-12-15T06:30:37.656Z,97276.88
2022-12-15T06:34:02.283Z,97266.19
2022-12-15T06:37:24.490Z,97268.66
2022-12-15T06:40:46.329Z,97275.38
2022-12-15T06:44:16.979Z,97283.34
2022-12-15T06:47:38.830Z,97293.00
2022-12-15T06:51:13.301Z,97284.41
2022-12-15T06:54:38.546Z,97277.38
2022-12-15T06:58:00.385Z,97270.06
2022-12-15T07:01:24.929Z,97277.44
2022-12-15T07:04:47.074Z,97287.59
2022-12-15T07:08:11.275Z,97283.44
2022-12-15T07:11:33.247Z,97290.50
2022-12-15T07:14:54.970Z,97287.34
2022-12-15T07:18:17.666Z,97294.16
2022-12-15T07:24:51.649Z,97296.91
2022-12-15T07:28:25.761Z,97320.31
2022-12-15T07:31:53.748Z,97339.38
2022-12-15T07:35:15.828Z,97350.50
2022-12-15T07:38:45.592Z,97359.53
2022-12-15T07:42:16.992Z,97360.97
2022-12-15T07:45:53.687Z,97364.44
2022-12-15T07:49:24.560Z,97362.47
2022-12-15T07:52:46.972Z,97381.06
2022-12-15T07:56:15.333Z,97371.88
2022-12-15T07:59:38.517Z,97361.13
2022-12-15T08:03:03.660Z,97374.06
2022-12-15T08:06:25.916Z,97377.38
2022-12-15T08:09:48.192Z,97376.81
2022-12-15T08:14:00.133Z,97387.03
2022-12-15T08:17:19.881Z,97393.56
2022-12-15T08:20:45.905Z,97401.84
2022-12-15T08:24:14.481Z,97388.16
2022-12-15T08:27:36.327Z,97380.34
2022-12-15T08:31:10.574Z,97422.06
2022-12-15T08:34:32.469Z,97416.47
2022-12-15T08:37:54.427Z,97434.81
2022-12-15T08:41:26.979Z,97429.50
2022-12-15T08:44:57.070Z,97430.59
2022-12-15T08:48:18.945Z,97436.91
2022-12-15T08:51:41.833Z,97446.25
2022-12-15T08:55:04.116Z,97459.13
2022-12-15T08:58:32.313Z,97463.97
2022-12-15T09:01:56.415Z,97459.94
2022-12-15T09:05:24.638Z,97444.31
2022-12-15T09:08:50.189Z,97460.34
2022-12-15T09:12:14.033Z,97466.56
2022-12-15T09:16:07.507Z,97469.47
2022-12-15T09:19:19.164Z,97477.44
2022-12-15T09:22:46.046Z,97490.59
2022-12-15T09:26:15.887Z,97488.53
2022-12-15T09:29:39.569Z,97456.31
2022-12-15T09:33:01.560Z,97468.69
2022-12-15T09:36:27.209Z,97481.53
2022-12-15T09:39:50.410Z,97483.19
2022-12-15T09:43:42.943Z,97484.56
2022-12-15T09:47:18.724Z,97480.16
2022-12-15T09:50:45.702Z,97470.41
2022-12-15T09:54:11.569Z,97467.00
2022-12-15T09:58:24.447Z,97469.19
2022-12-15T10:02:19.207Z,97480.53
2022-12-15T10:06:21.090Z,97474.91
2022-12-15T10:09:50.823Z,97465.81
2022-12-15T10:14:06.459Z,97456.56
2022-12-15T10:18:04.025Z,97446.84
2022-12-15T10:21:28.790Z,97439.22
2022-12-15T10:25:11.300Z,97425.00
2022-12-15T10:28:52.422Z,97438.53
2022-12-15T10:32:51.302Z,97433.19
2022-12-15T10:36:16.293Z,97430.38
2022-12-15T10:39:51.587Z,97433.00
2022-12-15T10:43:41.811Z,97413.81
2022-12-15T10:47:16.319Z,97428.97
2022-12-15T10:50:39.215Z,97418.38
2022-12-15T10:54:15.760Z,97431.34
2022-12-15T10:57:37.583Z,97451.03
2022-12-15T11:01:14.858Z,97439.66
2022-12-15T11:04:40.311Z,97440.25
2022-12-15T11:08:17.401Z,97432.50
2022-12-15T11:12:06.249Z,97421.63
2022-12-15T11:15:47.203Z,97424.03
2022-12-15T11:19:47.549Z,97430.25
2022-12-15T11:23:57.009Z,97430.47
2022-12-15T11:27:38.781Z,97405.91
2022-12-15T11:31:27.730Z,97384.41
2022-12-15T11:34:55.093Z,97374.97
2022-12-15T11:38:59.061Z,97361.00
2022-12-15T11:42:30.041Z,97372.50
2022-12-15T11:46:51.323Z,97362.00
2022-12-15T11:50:45.182Z,97359.09
2022-12-15T11:54:48.516Z,97340.16
2022-12-15T11:58:38.976Z,97331.38
2022-12-15T12:02:40.660Z,97312.59
2022-12-15T12:06:24.994Z,97298.88
2022-12-15T12:10:08.551Z,97288.22
2022-12-15T12:14:11.898Z,97281.97
2022-12-15T12:17:47.713Z,97289.22
2022-12-15T12:21:19.626Z,97267.41
2022-12-15T12:24:58.291Z,97268.19
2022-12-15T12:28:29.830Z,97258.59
2022-12-15T12:32:10.750Z,97264.16
2022-12-15T12:36:00.421Z,97269.13
2022-12-15T12:39:32.915Z,97271.75
2022-12-15T12:43:08.631Z,97269.72
2022-12-15T12:46:48.990Z,97272.63
2022-12-15T12:50:25.124Z,97265.25
2022-12-15T12:53:50.438Z,97268.16
2022-12-15T12:57:12.253Z,97260.91
2022-12-15T13:00:34.648Z,97257.31
2022-12-15T13:04:33.774Z,97255.66
2022-12-15T13:08:10.780Z,97244.22
2022-12-15T13:12:10.163Z,97240.19
2022-12-15T13:15:50.813Z,97239.38
2022-12-15T13:20:01.209Z,97239.94
2022-12-15T13:23:30.406Z,97240.25
2022-12-15T13:26:52.870Z,97230.88
2022-12-15T13:30:16.516Z,97227.53
2022-12-15T13:34:01.105Z,97219.56
2022-12-15T13:37:58.649Z,97222.53
2022-12-15T13:41:26.586Z,97205.72
2022-12-15T13:44:57.060Z,97204.75
2022-12-15T13:49:03.441Z,97206.06
2022-12-15T13:53:17.018Z,97211.53
2022-12-15T13:57:06.870Z,97202.75
2022-12-15T14:00:39.381Z,97203.63
2022-12-15T14:04:15.637Z,97182.44
2022-12-15T14:07:49.535Z,97200.16
2022-12-15T14:11:51.265Z,97193.66
2022-12-15T14:15:13.151Z,97192.00
2022-12-15T14:18:45.608Z,97196.13
2022-12-15T14:22:25.170Z,97204.22
2022-12-15T14:26:12.524Z,97199.19
2022-12-15T14:29:35.088Z,97210.38
2022-12-15T14:33:14.852Z,97195.59
2022-12-15T14:36:42.954Z,97216.25
2022-12-15T14:40:07.164Z,97231.06
2022-12-15T14:43:36.631Z,97238.00
2022-12-15T14:47:01.455Z,97253.59
2022-12-15T14:50:26.425Z,97246.97
2022-12-15T14:53:54.841Z,97255.22
2022-12-15T14:57:51.845Z,97252.41
2022-12-15T15:01:41.155Z,97257.97
2022-12-15T15:05:07.694Z,97262.56
2022-12-15T15:08:43.575Z,97258.53
2022-12-15T15:12:13.777Z,97246.91
2022-12-15T15:15:35.845Z,97251.78
2022-12-15T15:19:04.289Z,97249.66
2022-12-15T15:22:36.557Z,97238.50
2022-12-15T15:26:10.503Z,97245.50
2022-12-15T15:29:42.249Z,97242.66
2022-12-15T15:33:08.174Z,97256.63
2022-12-15T15:36:38.096Z,97250.72
2022-12-15T15:40:17.807Z,97244.09
2022-12-15T15:43:43.658Z,97249.56
2022-12-15T15:47:20.282Z,97254.34
2022-12-15T15:50:48.244Z,97260.28
2022-12-15T15:54:35.761Z,97266.47
2022-12-15T15:58:12.584Z,97261.00
2022-12-15T16:01:34.715Z,97255.28
2022-12-15T16:04:59.741Z,97268.09
2022-12-15T16:08:29.104Z,97257.63
2022-12-15T16:11:51.361Z,97265.53
2022-12-15T16:15:25.764Z,97261.72
2022-12-15T16:18:52.665Z,97269.59
2022-12-15T16:22:21.127Z,97272.03
2022-12-15T16:25:51.260Z,97265.91
2022-12-15T16:29:16.501Z,97264.13
2022-12-15T16:32:40.419Z,97254.81
2022-12-15T16:36:13.730Z,97263.28
2022-12-15T16:39:35.876Z,97268.84
2022-12-15T16:43:01.275Z,97280.34
2022-12-15T16:46:23.308Z,97273.41
2022-12-15T16:49:53.316Z,97276.03
2022-12-15T16:53:23.445Z,97275.47
2022-12-15T16:56:47.669Z,97277.59
2022-12-15T17:00:24.737Z,97291.78
2022-12-15T17:03:47.115Z,97282.66
2022-12-15T17:07:19.553Z,97292.44
2022-12-15T17:10:44.760Z,97290.72
2022-12-15T17:14:11.360Z,97301.72
2022-12-15T17:17:41.373Z,97300.03
2022-12-15T17:21:26.474Z,97291.91
2022-12-15T17:24:51.892Z,97288.19
2022-12-15T17:28:20.701Z,97303.91
2022-12-15T17:31:45.723Z,97299.66
2022-12-15T17:35:08.047Z,97289.06
2022-12-15T17:38:32.036Z,97286.50
2022-12-15T17:42:06.256Z,97282.16
2022-12-15T17:45:34.075Z,97288.72
2022-12-15T17:48:56.211Z,97289.97
2022-12-15T17:52:28.828Z,97286.97
2022-12-15T17:55:54.137Z,97280.69
2022-12-15T17:59:22.337Z,97295.56
2022-12-15T18:02:44.948Z,97294.13
2022-12-15T18:06:15.450Z,97302.22
2022-12-15T18:09:37.350Z,97301.69
2022-12-15T18:13:00.814Z,97306.56
2022-12-15T18:16:22.815Z,97296.38
2022-12-15T18:19:44.995Z,97305.34
2022-12-15T18:23:22.019Z,97310.16
2022-12-15T18:26:45.867Z,97309.34
2022-12-15T18:30:16.825Z,97303.72
2022-12-15T18:33:38.961Z,97313.47
2022-12-15T18:37:18.445Z,97314.31
2022-12-15T18:40:47.093Z,97299.53
2022-12-15T18:44:27.133Z,97317.13
2022-12-15T18:47:50.927Z,97291.91
2022-12-15T18:51:24.877Z,97298.16
2022-12-15T18:54:50.474Z,97305.84
2022-12-15T18:58:27.161Z,97308.16
2022-12-15T19:01:52.157Z,97305.97
2022-12-15T19:05:29.913Z,97306.75
2022-12-15T19:08:52.280Z,97303.63
2022-12-15T19:12:19.501Z,97312.69
2022-12-15T19:15:45.583Z,97305.97
2022-12-15T19:19:30.774Z,97325.91
2022-12-15T19:22:53.107Z,97316.22
2022-12-15T19:26:15.324Z,97329.44
2022-12-15T19:29:44.897Z,97310.16
2022-12-15T19:33:14.945Z,97316.22
2022-12-15T19:36:39.817Z,97323.34
2022-12-15T19:40:08.033Z,97320.44
2022-12-15T19:43:33.293Z,97311.34
2022-12-15T19:46:57.153Z,97315.75
2022-12-15T19:50:35.876Z,97306.78
2022-12-15T19:53:58.013Z,97322.16
2022-12-15T19:57:20.994Z,97297.19
2022-12-15T20:00:43.036Z,97321.69
2022-12-15T20:04:05.055Z,97311.88
2022-12-15T20:07:30.688Z,97310.91
2022-12-15T20:10:56.586Z,97327.75
2022-12-15T20:14:19.579Z,97322.94
2022-12-15T20:17:41.393Z,97320.88
2022-12-15T20:21:03.437Z,97316.91
2022-12-15T20:24:27.093Z,97324.72
2022-12-15T20:27:49.144Z,97320.13
2022-12-15T20:31:22.366Z,97327.16
2022-12-15T20:34:47.705Z,97331.81
2022-12-15T20:38:31.657Z,97317.91
2022-12-15T20:41:54.337Z,97332.47
2022-12-15T20:45:26.611Z,97335.22
2022-12-15T20:48:51.729Z,97326.09
2022-12-15T20:52:26.893Z,97314.56
2022-12-15T20:55:53.255Z,97323.97
2022-12-15T20:59:17.274Z,97321.19
2022-12-15T21:02:43.130Z,97333.00
2022-12-15T21:06:05.301Z,97342.91
2022-12-15T21:09:29.276Z,97336.03
2022-12-15T21:12:52.439Z,97315.41
2022-12-15T21:16:22.009Z,97311.81
2022-12-15T21:19:47.960Z,97327.28
2022-12-15T21:23:27.223Z,97331.25
2022-12-15T21:26:51.377Z,97328.78
2022-12-15T21:30:23.352Z,97336.13
2022-12-15T21:33:46.499Z,97334.00
2022-12-15T21:37:30.707Z,97334.75
2022-12-15T21:41:05.850Z,97335.47
2022-12-15T21:44:28.848Z,97337.59
2022-12-15T21:48:10.379Z,97349.13
2022-12-15T21:51:38.465Z,97348.06
2022-12-15T21:55:01.901Z,97363.19
2022-12-15T21:58:27.888Z,97362.09
2022-12-15T22:01:50.708Z,97376.19
2022-12-15T22:05:30.725Z,97369.75
2022-12-15T22:08:54.816Z,97386.59
2022-12-15T22:12:23.250Z,97386.06
2022-12-15T22:15:46.139Z,97400.44
2022-12-15T22:19:13.434Z,97402.56
2022-12-15T22:22:35.323Z,97400.84
2022-12-15T22:26:02.880Z,97396.94
2022-12-15T22:29:25.331Z,97404.75
2022-12-15T22:32:47.233Z,97413.47
2022-12-15T22:36:09.298Z,97410.97
2022-12-15T22:39:32.667Z,97420.09
2022-12-15T22:42:58.123Z,97409.94
2022-12-15T22:46:23.899Z,97397.94
2022-12-15T22:49:45.877Z,97407.66
2022-12-15T22:53:16.867Z,97421.69
2022-12-15T22:56:40.081Z,97422.81
2022-12-15T23:00:11.067Z,97417.25
2022-12-15T23:03:35.493Z,97407.44
2022-12-15T23:07:00.466Z,97396.19
2022-12-15T23:10:40.652Z,97409.31
2022-12-15T23:14:04.369Z,97399.53
2022-12-15T23:17:27.331Z,97412.47
2022-12-15T23:20:57.470Z,97398.44
2022-12-15T23:24:20.469Z,97400.53
2022-12-15T23:27:42.346Z,97404.19
2022-12-15T23:31:04.985Z,97409.41
2022-12-15T23:34:33.108Z,97409.91
2022-12-15T23:37:55.048Z,97414.28
2022-12-15T23:41:18.457Z,97404.72
2022-12-15T23:44:41.200Z,97409.97
2022-12-15T23:48:03.175Z,97391.06
2022-12-15T23:51:25.032Z,97423.94
2022-12-15T23:54:46.938Z,97403.78
2022-12-15T23:58:09.830Z,97410.97
